createdAt,value
2018-04-17T00:01:27.957Z,27.48
2018-04-17T00:03:58.642Z,25.36
2018-04-17T00:06:30.499Z,23.78
2018-04-17T00:09:02.500Z,23.94
2018-04-17T00:11:35.485Z,23.41
2018-04-17T00:14:08.275Z,24.54
2018-04-17T00:16:40.278Z,24.07
2018-04-17T00:19:13.272Z,24.73
2018-04-17T00:21:45.597Z,24.86
2018-04-17T00:24:16.414Z,25.39
2018-04-17T00:26:48.525Z,25.64
2018-04-17T00:29:20.492Z,25.98
2018-04-17T00:31:52.535Z,26.18
2018-04-17T00:34:24.482Z,26.21
2018-04-17T00:36:56.525Z,26.09
2018-04-17T00:42:14.548Z,26.15
2018-04-17T00:44:47.637Z,26.39
2018-04-17T00:47:18.436Z,26.47
2018-04-17T00:49:50.115Z,26.69
2018-04-17T00:52:23.261Z,26.59
2018-04-17T00:54:56.242Z,26.89
2018-04-17T00:57:28.248Z,27.10
2018-04-17T01:00:00.224Z,26.92
2018-04-17T01:04:56.537Z,26.77
2018-04-17T01:07:28.474Z,26.76
2018-04-17T01:10:00.479Z,26.93
2018-04-17T01:12:32.254Z,26.69
2018-04-17T01:15:04.228Z,26.84
2018-04-17T01:17:36.241Z,27.54
2018-04-17T01:20:09.567Z,27.17
2018-04-17T01:22:40.480Z,27.63
2018-04-17T01:25:12.583Z,27.59
2018-04-17T01:27:43.119Z,27.88
2018-04-17T01:30:15.588Z,28.30
2018-04-17T01:32:46.497Z,28.54
2018-04-17T01:35:20.305Z,29.05
2018-04-17T01:37:53.534Z,29.47
2018-04-17T01:40:24.482Z,29.72
2018-04-17T01:42:56.781Z,29.83
2018-04-17T01:45:28.940Z,29.80
2018-04-17T01:48:01.474Z,30.08
2018-04-17T01:50:33.499Z,29.65
2018-04-17T01:53:06.290Z,30.39
2018-04-17T01:55:39.329Z,30.76
2018-04-17T01:58:11.289Z,30.88
2018-04-17T02:04:41.231Z,31.44
2018-04-17T02:07:13.283Z,31.46
2018-04-17T02:09:45.267Z,31.59
2018-04-17T02:12:17.256Z,31.59
2018-04-17T02:14:49.272Z,31.68
2018-04-17T02:17:25.299Z,31.55
2018-04-17T02:19:57.519Z,31.59
2018-04-17T02:23:21.250Z,31.37
2018-04-17T02:25:53.245Z,31.95
2018-04-17T02:28:25.261Z,30.99
2018-04-17T02:30:57.705Z,31.85
2018-04-17T02:33:29.569Z,31.92
2018-04-17T02:36:01.491Z,31.80
2018-04-17T02:38:33.597Z,31.89
2018-04-17T02:41:05.480Z,31.91
2018-04-17T02:43:37.482Z,32.06
2018-04-17T02:46:10.692Z,32.58
2018-04-17T02:48:42.564Z,32.58
2018-04-17T02:53:48.430Z,32.64
2018-04-17T03:00:52.252Z,32.46
2018-04-17T03:03:24.300Z,32.63
2018-04-17T03:05:56.497Z,32.56
2018-04-17T03:08:31.291Z,32.92
2018-04-17T03:11:04.314Z,32.90
2018-04-17T03:17:32.858Z,33.67
2018-04-17T03:20:05.274Z,34.07
2018-04-17T03:22:38.546Z,34.98
2018-04-17T03:25:10.544Z,34.45
2018-04-17T03:27:43.256Z,34.17
2018-04-17T03:30:16.470Z,34.22
2018-04-17T03:32:48.474Z,34.52
2018-04-17T03:35:20.559Z,34.26
2018-04-17T03:37:51.493Z,34.93
2018-04-17T03:40:23.250Z,34.66
2018-04-17T03:42:56.298Z,34.78
2018-04-17T03:45:28.976Z,34.90
2018-04-17T03:48:00.575Z,34.94
2018-04-17T03:50:32.101Z,34.95
2018-04-17T03:53:04.280Z,34.54
2018-04-17T03:55:36.232Z,34.34
2018-04-17T03:58:09.519Z,34.72
2018-04-17T04:00:41.488Z,34.61
2018-04-17T04:03:13.579Z,34.89
2018-04-17T04:05:48.867Z,35.10
2018-04-17T04:11:12.588Z,35.52
2018-04-17T04:13:43.500Z,35.63
2018-04-17T04:16:27.292Z,35.44
2018-04-17T04:19:10.623Z,35.73
2018-04-17T04:21:55.717Z,35.62
2018-04-17T04:24:40.088Z,36.08
2018-04-17T04:27:13.251Z,36.05
2018-04-17T04:29:45.594Z,36.17
2018-04-17T04:32:17.499Z,36.12
2018-04-17T04:34:49.265Z,36.31
2018-04-17T04:37:22.253Z,36.40
2018-04-17T04:39:54.545Z,36.31
2018-04-17T04:42:27.246Z,36.33
2018-04-17T04:44:59.277Z,36.77
2018-04-17T04:47:31.494Z,36.79
2018-04-17T04:50:03.499Z,36.71
2018-04-17T04:52:37.255Z,36.83
2018-04-17T04:55:09.262Z,36.83
2018-04-17T04:57:41.656Z,36.85
2018-04-17T05:00:13.517Z,36.89
2018-04-17T05:02:45.603Z,36.94
2018-04-17T05:05:18.254Z,37.26
2018-04-17T05:07:52.114Z,37.17
2018-04-17T05:10:25.560Z,37.11
2018-04-17T05:12:56.108Z,37.57
2018-04-17T05:17:20.117Z,36.92
2018-04-17T05:22:34.624Z,37.27
2018-04-17T05:25:06.140Z,37.37
2018-04-17T05:27:39.515Z,37.63
2018-04-17T05:30:11.612Z,37.18
2018-04-17T05:32:43.358Z,37.15
2018-04-17T05:35:16.502Z,37.15
2018-04-17T05:37:48.612Z,37.28
2018-04-17T05:40:19.498Z,37.38
2018-04-17T05:42:52.297Z,37.54
2018-04-17T05:45:25.263Z,37.63
2018-04-17T05:47:58.278Z,37.54
2018-04-17T05:53:10.262Z,37.99
2018-04-17T05:55:43.277Z,37.98
2018-04-17T05:58:15.595Z,38.06
2018-04-17T06:01:21.920Z,38.37
2018-04-17T06:03:53.589Z,38.35
2018-04-17T06:06:24.490Z,38.02
2018-04-17T06:08:57.595Z,38.15
2018-04-17T06:11:29.486Z,38.07
2018-04-17T06:14:01.490Z,38.30
2018-04-17T06:16:33.289Z,38.18
2018-04-17T06:19:05.267Z,38.72
2018-04-17T06:23:38.499Z,38.91
2018-04-17T06:26:55.102Z,38.91
2018-04-17T06:29:27.304Z,38.86
2018-04-17T06:31:59.284Z,38.93
2018-04-17T06:34:31.513Z,39.06
2018-04-17T06:37:04.965Z,38.94
2018-04-17T06:39:36.595Z,38.85
2018-04-17T06:42:07.465Z,39.14
2018-04-17T06:44:39.277Z,39.29
2018-04-17T06:47:12.257Z,39.30
2018-04-17T06:49:44.243Z,39.27
2018-04-17T06:52:17.222Z,39.44
2018-04-17T06:54:50.492Z,39.62
2018-04-17T06:57:22.276Z,39.93
2018-04-17T06:59:54.262Z,39.49
2018-04-17T07:02:26.851Z,39.58
2018-04-17T07:04:59.268Z,39.77
2018-04-17T07:07:31.531Z,39.67
2018-04-17T07:10:04.276Z,40.17
2018-04-17T07:12:36.551Z,40.41
2018-04-17T07:15:08.571Z,40.18
2018-04-17T07:17:42.282Z,40.38
2018-04-17T07:20:15.503Z,40.41
2018-04-17T07:22:48.506Z,40.55
2018-04-17T07:25:22.266Z,40.66
2018-04-17T07:27:55.527Z,40.88
2018-04-17T07:30:27.516Z,40.69
2018-04-17T07:32:59.373Z,40.89
2018-04-17T07:35:31.518Z,40.78
2018-04-17T07:38:03.523Z,41.11
2018-04-17T07:40:37.808Z,41.18
2018-04-17T07:43:09.639Z,41.19
2018-04-17T07:45:40.366Z,41.17
2018-04-17T07:48:27.508Z,40.98
2018-04-17T07:50:59.529Z,40.86
2018-04-17T07:53:32.767Z,40.66
2018-04-17T07:56:06.286Z,40.49
2018-04-17T07:58:40.403Z,40.42
2018-04-17T08:01:14.516Z,40.79
2018-04-17T08:03:47.990Z,41.32
2018-04-17T08:06:20.641Z,40.49
2018-04-17T08:08:54.661Z,40.75
2018-04-17T08:11:28.549Z,40.99
2018-04-17T08:14:00.578Z,41.16
2018-04-17T08:16:34.539Z,40.88
2018-04-17T08:19:07.564Z,41.24
2018-04-17T08:21:40.544Z,41.45
2018-04-17T08:24:49.295Z,41.51
2018-04-17T08:27:22.238Z,41.53
2018-04-17T08:29:55.270Z,41.18
2018-04-17T08:32:28.278Z,41.72
2018-04-17T08:35:01.592Z,41.71
2018-04-17T08:37:34.597Z,41.02
2018-04-17T08:40:06.506Z,41.19
2018-04-17T08:42:40.099Z,41.55
2018-04-17T08:45:14.213Z,41.66
2018-04-17T08:47:47.517Z,41.76
2018-04-17T08:50:20.567Z,41.51
2018-04-17T08:52:52.641Z,41.61
2018-04-17T08:55:24.503Z,41.38
2018-04-17T08:57:58.497Z,41.48
2018-04-17T09:00:31.510Z,41.01
2018-04-17T09:03:04.262Z,41.62
2018-04-17T09:05:38.247Z,41.88
2018-04-17T09:08:12.265Z,41.52
2018-04-17T09:10:46.272Z,41.80
2018-04-17T09:13:18.590Z,41.89
2018-04-17T09:15:52.222Z,41.75
2018-04-17T09:18:25.484Z,41.83
2018-04-17T09:20:59.588Z,41.91
2018-04-17T09:23:33.261Z,41.81
2018-04-17T09:26:06.216Z,41.86
2018-04-17T09:28:39.227Z,41.89
2018-04-17T09:31:12.234Z,42.10
2018-04-17T09:33:45.277Z,42.01
2018-04-17T09:36:18.213Z,42.04
2018-04-17T09:38:51.280Z,42.09
2018-04-17T09:41:24.521Z,41.97
2018-04-17T09:43:57.538Z,42.01
2018-04-17T09:46:31.262Z,42.10
2018-04-17T09:49:04.222Z,42.15
2018-04-17T09:51:37.922Z,42.07
2018-04-17T09:54:11.532Z,42.28
2018-04-17T09:56:44.554Z,42.10
2018-04-17T09:59:16.125Z,42.33
2018-04-17T10:01:49.535Z,42.22
2018-04-17T10:04:21.463Z,42.21
2018-04-17T10:06:53.236Z,42.01
2018-04-17T10:09:26.649Z,42.12
2018-04-17T10:12:00.271Z,42.15
2018-04-17T10:14:33.635Z,41.98
2018-04-17T10:18:59.512Z,41.81
2018-04-17T10:21:32.348Z,41.96
2018-04-17T10:24:05.512Z,41.97
2018-04-17T10:26:38.504Z,42.27
2018-04-17T10:29:12.254Z,42.61
2018-04-17T10:31:45.253Z,42.88
2018-04-17T10:34:19.265Z,42.65
2018-04-17T10:36:52.511Z,42.70
2018-04-17T10:39:26.246Z,42.70
2018-04-17T10:42:00.246Z,42.69
2018-04-17T10:44:32.671Z,42.82
2018-04-17T10:47:06.620Z,42.71
2018-04-17T10:49:39.670Z,42.85
2018-04-17T10:52:11.641Z,42.65
2018-04-17T10:54:45.638Z,42.68
2018-04-17T10:57:18.143Z,43.11
2018-04-17T10:59:51.666Z,42.86
2018-04-17T11:04:24.700Z,42.96
2018-04-17T11:06:57.588Z,43.37
2018-04-17T11:09:30.414Z,43.48
2018-04-17T11:12:04.611Z,43.84
2018-04-17T11:14:38.834Z,43.68
2018-04-17T11:17:11.744Z,43.37
2018-04-17T11:19:44.757Z,43.46
2018-04-17T11:24:24.895Z,43.68
2018-04-17T11:26:57.709Z,43.81
2018-04-17T11:29:32.748Z,43.75
2018-04-17T11:32:05.604Z,43.60
2018-04-17T11:34:38.609Z,43.62
2018-04-17T11:37:10.684Z,43.68
2018-04-17T11:39:43.686Z,43.67
2018-04-17T11:42:16.570Z,43.53
2018-04-17T11:44:49.356Z,43.06
2018-04-17T11:47:23.545Z,43.64
2018-04-17T11:49:57.912Z,43.56
2018-04-17T11:52:30.658Z,44.01
2018-04-17T11:55:02.901Z,43.80
2018-04-17T11:57:34.780Z,42.98
2018-04-17T12:00:06.731Z,43.34
2018-04-17T12:02:38.713Z,44.33
2018-04-17T12:05:12.770Z,43.62
2018-04-17T12:07:45.403Z,44.03
2018-04-17T12:10:18.937Z,44.31
2018-04-17T12:12:51.818Z,44.09
2018-04-17T12:15:25.040Z,44.13
2018-04-17T12:17:59.227Z,44.10
2018-04-17T12:20:33.162Z,44.12
2018-04-17T12:23:07.289Z,44.14
2018-04-17T12:25:41.921Z,44.20
2018-04-17T12:28:13.883Z,43.99
2018-04-17T12:30:47.591Z,44.20
2018-04-17T12:33:20.646Z,44.27
2018-04-17T12:35:52.833Z,43.37
2018-04-17T12:38:26.646Z,44.01
2018-04-17T12:40:59.685Z,44.20
2018-04-17T12:43:32.668Z,44.03
2018-04-17T12:46:05.225Z,44.07
2018-04-17T12:48:39.551Z,44.32
2018-04-17T12:51:13.598Z,44.29
2018-04-17T12:53:47.677Z,44.14
2018-04-17T12:56:20.710Z,43.69
2018-04-17T12:58:53.832Z,44.09
2018-04-17T13:01:25.841Z,44.58
2018-04-17T13:03:58.181Z,43.91
2018-04-17T13:06:32.511Z,43.94
2018-04-17T13:09:07.728Z,43.85
2018-04-17T13:11:40.638Z,44.59
2018-04-17T13:14:12.617Z,44.97
2018-04-17T13:16:46.564Z,44.15
2018-04-17T13:22:07.747Z,44.37
2018-04-17T13:24:40.737Z,44.50
2018-04-17T13:27:15.645Z,44.26
2018-04-17T13:29:47.669Z,44.44
2018-04-17T13:32:19.885Z,44.75
2018-04-17T13:34:52.706Z,45.29
2018-04-17T13:37:25.704Z,45.10
2018-04-17T13:39:59.928Z,44.49
2018-04-17T13:42:32.689Z,44.60
2018-04-17T13:45:06.697Z,44.75
2018-04-17T13:47:39.842Z,45.55
2018-04-17T13:50:13.689Z,45.43
2018-04-17T13:52:48.622Z,44.99
2018-04-17T13:55:22.664Z,45.22
2018-04-17T13:57:55.899Z,45.55
2018-04-17T14:00:29.694Z,45.62
2018-04-17T14:03:03.704Z,45.64
2018-04-17T14:05:36.039Z,45.46
2018-04-17T14:08:09.784Z,44.52
2018-04-17T14:10:42.694Z,44.91
2018-04-17T14:13:15.860Z,44.90
2018-04-17T14:15:50.625Z,45.48
2018-04-17T14:18:24.826Z,45.17
2018-04-17T14:20:57.896Z,45.63
2018-04-17T14:23:30.676Z,46.09
2018-04-17T14:26:03.062Z,46.01
2018-04-17T14:28:36.855Z,45.97
2018-04-17T14:31:09.410Z,45.85
2018-04-17T14:33:43.505Z,45.69
2018-04-17T14:36:17.650Z,44.72
2018-04-17T14:38:50.855Z,45.69
2018-04-17T14:41:23.670Z,45.49
2018-04-17T14:43:56.783Z,45.24
2018-04-17T14:46:29.815Z,45.17
2018-04-17T14:49:02.804Z,45.07
2018-04-17T14:51:35.630Z,45.20
2018-04-17T14:54:09.271Z,45.44
2018-04-17T14:56:43.851Z,45.33
2018-04-17T14:59:15.575Z,45.31
2018-04-17T15:01:50.074Z,45.03
2018-04-17T15:04:23.493Z,45.53
2018-04-17T15:06:56.634Z,44.94
2018-04-17T15:09:30.803Z,45.14
2018-04-17T15:12:02.509Z,45.19
2018-04-17T15:14:34.510Z,45.12
2018-04-17T15:17:07.559Z,44.99
2018-04-17T15:19:40.581Z,45.59
2018-04-17T15:22:13.509Z,45.22
2018-04-17T15:24:46.564Z,45.35
2018-04-17T15:27:19.310Z,45.59
2018-04-17T15:29:52.338Z,45.58
2018-04-17T15:34:05.268Z,45.31
2018-04-17T15:36:38.603Z,45.24
2018-04-17T15:39:12.576Z,45.22
2018-04-17T15:41:46.430Z,45.19
2018-04-17T15:44:18.491Z,45.43
2018-04-17T15:46:50.504Z,45.52
2018-04-17T15:49:23.826Z,45.42
2018-04-17T15:51:56.305Z,45.42
2018-04-17T15:54:28.281Z,45.83
2018-04-17T15:57:00.257Z,45.48
2018-04-17T15:59:33.613Z,45.22
2018-04-17T16:02:04.497Z,45.56
2018-04-17T16:04:36.288Z,45.47
2018-04-17T16:07:08.531Z,45.15
2018-04-17T16:09:40.614Z,45.21
2018-04-17T16:12:12.618Z,45.35
2018-04-17T16:14:43.181Z,45.12
2018-04-17T16:17:16.309Z,44.82
2018-04-17T16:19:49.275Z,44.69
2018-04-17T16:23:33.512Z,45.10
2018-04-17T16:26:05.517Z,45.15
2018-04-17T16:28:37.621Z,44.63
2018-04-17T16:31:09.397Z,44.93
2018-04-17T16:33:41.648Z,44.93
2018-04-17T16:36:14.836Z,44.61
2018-04-17T16:38:48.083Z,44.81
2018-04-17T16:43:22.098Z,44.50
2018-04-17T16:45:55.517Z,44.03
2018-04-17T16:48:28.518Z,44.19
2018-04-17T16:51:00.605Z,44.14
2018-04-17T16:53:34.720Z,44.31
2018-04-17T16:56:08.624Z,43.96
2018-04-17T17:00:46.073Z,43.33
2018-04-17T17:03:19.639Z,43.25
2018-04-17T17:05:52.295Z,43.11
2018-04-17T17:08:25.401Z,43.26
2018-04-17T17:10:58.242Z,43.38
2018-04-17T17:13:31.306Z,43.79
2018-04-17T17:16:04.305Z,43.42
2018-04-17T17:18:36.771Z,42.76
2018-04-17T17:21:10.244Z,42.86
2018-04-17T17:23:42.281Z,43.38
2018-04-17T17:28:53.226Z,42.48
2018-04-17T17:31:25.270Z,42.65
2018-04-17T17:37:27.583Z,42.48
2018-04-17T17:39:58.089Z,42.73
2018-04-17T17:42:30.316Z,42.36
2018-04-17T17:45:02.247Z,42.19
2018-04-17T17:49:42.120Z,42.12
2018-04-17T17:52:14.285Z,41.96
2018-04-17T17:54:46.225Z,41.65
2018-04-17T17:57:18.272Z,41.43
2018-04-17T17:59:50.265Z,40.71
2018-04-17T18:02:46.540Z,41.24
2018-04-17T18:05:18.293Z,40.91
2018-04-17T18:07:50.303Z,41.06
2018-04-17T18:10:22.526Z,41.25
2018-04-17T18:12:54.513Z,40.92
2018-04-17T18:15:26.266Z,40.94
2018-04-17T18:18:01.352Z,40.92
2018-04-17T18:20:33.436Z,40.68
2018-04-17T18:25:13.343Z,39.80
2018-04-17T18:27:45.496Z,39.97
2018-04-17T18:30:17.588Z,39.93
2018-04-17T18:32:48.499Z,40.04
2018-04-17T18:35:20.420Z,39.74
2018-04-17T18:37:52.486Z,39.12
2018-04-17T18:40:24.503Z,39.17
2018-04-17T18:42:56.492Z,39.24
2018-04-17T18:47:09.285Z,40.49
2018-04-17T18:49:41.436Z,40.89
2018-04-17T18:52:13.509Z,39.71
2018-04-17T18:54:45.585Z,39.90
2018-04-17T18:58:08.083Z,39.54
2018-04-17T19:00:40.336Z,39.39
2018-04-17T19:03:12.284Z,38.36
2018-04-17T19:05:44.570Z,38.10
2018-04-17T19:08:15.090Z,38.45
2018-04-17T19:10:47.272Z,38.34
2018-04-17T19:13:19.281Z,38.23
2018-04-17T19:15:52.289Z,37.84
2018-04-17T19:18:24.595Z,37.74
2018-04-17T19:20:56.521Z,37.54
2018-04-17T19:23:30.505Z,37.59
2018-04-17T19:26:03.563Z,36.91
2018-04-17T19:28:35.514Z,37.19
2018-04-17T19:31:09.277Z,37.12
2018-04-17T19:33:42.244Z,36.42
2018-04-17T19:36:15.586Z,36.48
2018-04-17T19:38:47.399Z,36.41
2018-04-17T19:41:21.110Z,36.27
2018-04-17T19:43:54.523Z,35.68
2018-04-17T19:46:27.512Z,35.56
2018-04-17T19:49:01.281Z,35.11
2018-04-17T19:51:33.590Z,35.44
2018-04-17T19:54:05.491Z,35.72
2018-04-17T19:56:38.538Z,35.28
2018-04-17T19:59:10.549Z,35.06
2018-04-17T20:01:44.348Z,34.78
2018-04-17T20:04:16.125Z,34.75
2018-04-17T20:06:49.536Z,34.00
2018-04-17T20:09:22.583Z,33.96
2018-04-17T20:11:55.565Z,34.14
2018-04-17T20:14:28.549Z,33.00
2018-04-17T20:17:00.526Z,33.29
2018-04-17T20:19:33.547Z,33.12
2018-04-17T20:22:05.544Z,32.73
2018-04-17T20:24:38.646Z,32.86
2018-04-17T20:27:10.598Z,32.31
2018-04-17T20:29:44.645Z,32.38
2018-04-17T20:32:18.654Z,32.32
2018-04-17T20:34:51.633Z,32.29
2018-04-17T20:37:24.673Z,31.64
2018-04-17T20:39:57.660Z,31.05
2018-04-17T20:42:29.582Z,31.19
2018-04-17T20:45:02.665Z,31.05
2018-04-17T20:47:34.410Z,30.78
2018-04-17T20:50:07.557Z,30.49
2018-04-17T20:52:40.618Z,29.95
2018-04-17T20:55:14.024Z,29.84
2018-04-17T20:57:47.289Z,29.38
2018-04-17T21:00:20.554Z,28.98
2018-04-17T21:02:53.494Z,29.29
2018-04-17T21:08:09.493Z,28.61
2018-04-17T21:10:43.120Z,27.98
2018-04-17T21:13:16.278Z,28.27
2018-04-17T21:15:49.269Z,27.90
2018-04-17T21:18:22.518Z,27.61
2018-04-17T21:20:56.286Z,27.47
2018-04-17T21:23:29.490Z,26.78
2018-04-17T21:26:03.255Z,26.88
2018-04-17T21:28:35.955Z,26.77
2018-04-17T21:31:09.507Z,26.55
2018-04-17T21:33:42.104Z,26.77
2018-04-17T21:36:15.246Z,26.25
2018-04-17T21:38:48.554Z,26.12
2018-04-17T21:41:21.406Z,25.54
2018-04-17T21:43:54.548Z,25.79
2018-04-17T21:46:27.616Z,25.84
2018-04-17T21:49:01.123Z,25.53
2018-04-17T21:51:34.624Z,25.24
2018-04-17T21:54:08.224Z,25.45
2018-04-17T21:56:41.517Z,25.11
2018-04-17T21:59:14.638Z,24.77
2018-04-17T22:01:47.608Z,24.41
2018-04-17T22:04:19.647Z,24.92
2018-04-17T22:06:51.515Z,24.47
2018-04-17T22:09:24.718Z,24.60
2018-04-17T22:11:56.569Z,24.43
2018-04-17T22:14:29.601Z,24.34
2018-04-17T22:17:03.283Z,24.09
2018-04-17T22:19:36.594Z,24.19
2018-04-17T22:22:09.426Z,24.01
2018-04-17T22:24:42.663Z,23.73
2018-04-17T22:27:14.702Z,23.53
2018-04-17T22:29:53.286Z,23.55
2018-04-17T22:32:25.511Z,23.49
2018-04-17T22:34:57.519Z,23.55
2018-04-17T22:37:30.994Z,23.64
2018-04-17T22:47:10.274Z,23.85
2018-04-17T22:49:43.560Z,24.40
2018-04-17T22:52:15.526Z,24.83
2018-04-17T22:54:48.619Z,25.10
2018-04-17T22:57:22.627Z,24.93
2018-04-17T22:59:53.636Z,25.41
2018-04-17T23:02:24.631Z,24.97
2018-04-17T23:04:55.580Z,24.63
2018-04-17T23:07:29.635Z,24.07
2018-04-17T23:10:00.587Z,24.12
2018-04-17T23:14:20.703Z,22.78
2018-04-17T23:16:51.617Z,21.82
2018-04-17T23:19:22.586Z,21.14
2018-04-17T23:24:46.282Z,19.52
2018-04-17T23:27:22.647Z,19.05
2018-04-17T23:29:54.546Z,18.86
2018-04-17T23:33:45.614Z,17.40
2018-04-17T23:36:18.090Z,17.59
2018-04-17T23:38:52.924Z,17.32
2018-04-17T23:41:25.915Z,16.77
2018-04-17T23:43:58.131Z,16.56
2018-04-17T23:46:30.501Z,16.18
2018-04-17T23:49:03.665Z,15.40
2018-04-17T23:51:34.581Z,15.21
2018-04-17T23:54:05.567Z,15.06
2018-04-17T23:56:36.551Z,14.81
2018-04-17T23:59:10.494Z,14.47
